Time;durP1;ratioP1;P1;durP2;ratioP2;P2;SDS_P1;SDS_P2;PMS_P1;PMS_P2;Temp;Humidity;BMP_temperature;BMP_pressure;BME280_temperature;BME280_humidity;BME280_pressure;Samples;Min_cycle;Max_cycle;Signal;HPM_P1;HPM_P2
2022/08/22 00:00:10;;;;;;;6.60;5.50;;;;;;;21.13;94.29;94016.38;5089022;28;20189;-79
2022/08/22 00:02:45;;;;;;;6.80;6.07;;;;;;;21.13;94.10;94016.38;5077912;28;20226;-78
2022/08/22 00:05:28;;;;;;;7.82;5.65;;;;;;;21.02;93.66;93989.28;5068789;28;20225;-79
2022/08/22 00:08:07;;;;;;;6.45;5.85;;;;;;;21.15;94.06;94022.13;5068617;28;20201;-79
2022/08/22 00:10:50;;;;;;;5.20;4.78;;;;;;;21.15;93.49;94014.34;5069108;28;20197;-78
2022/08/22 00:13:22;;;;;;;6.53;5.25;;;;;;;21.07;93.45;93993.88;5068973;28;20194;-80
2022/08/22 00:15:57;;;;;;;6.30;5.70;;;;;;;21.07;93.61;94000.84;5068691;28;20186;-80
2022/08/22 00:18:31;;;;;;;9.47;6.63;;;;;;;21.13;93.89;94013.78;5068547;28;20243;-81
2022/08/22 00:21:09;;;;;;;7.63;6.82;;;;;;;21.12;93.62;94020.00;5068238;28;20214;-81
2022/08/22 00:23:41;;;;;;;10.52;6.88;;;;;;;21.11;93.44;94009.81;5068723;28;20506;-80
2022/08/22 00:26:24;;;;;;;8.38;7.57;;;;;;;21.11;93.09;94002.78;5068748;28;20194;-80
2022/08/22 00:28:59;;;;;;;8.57;7.55;;;;;;;20.99;93.09;93984.56;5068929;28;20273;-79
2022/08/22 00:31:32;;;;;;;10.55;8.20;;;;;;;21.07;93.18;93995.66;5068313;28;20289;-80
2022/08/22 00:34:04;;;;;;;13.30;8.48;;;;;;;21.04;93.11;93989.88;5068704;28;20602;-79
2022/08/22 00:36:38;;;;;;;9.57;8.57;;;;;;;21.08;93.37;94005.06;5068654;28;20275;-79
2022/08/22 00:39:14;;;;;;;10.27;8.45;;;;;;;21.09;93.43;94004.03;5068598;28;20281;-80
2022/08/22 00:42:12;;;;;;;8.95;7.78;;;;;;;21.02;93.61;94001.50;5068474;28;20304;-80
2022/08/22 00:45:32;;;;;;;9.23;8.07;;;;;;;21.05;93.80;93998.47;5068502;28;20190;-80
2022/08/22 00:48:21;;;;;;;9.85;8.18;;;;;;;20.98;93.65;93990.78;4951440;28;20194;-80
2022/08/22 00:51:13;;;;;;;9.88;8.77;;;;;;;20.97;93.60;93988.38;4948108;28;20972;-79
2022/08/22 00:53:47;;;;;;;11.10;8.48;;;;;;;20.99;93.65;93987.16;4951805;29;20197;-80
2022/08/22 00:56:51;;;;;;;10.15;9.15;;;;;;;20.98;93.52;93979.56;4951643;29;20803;-79
2022/08/22 00:59:42;;;;;;;9.13;8.15;;;;;;;20.98;93.71;93992.56;4951376;28;20551;-80
2022/08/22 01:02:22;;;;;;;10.73;9.60;;;;;;;20.94;94.03;93984.44;4948311;29;20233;-81
2022/08/22 01:05:10;;;;;;;11.82;9.75;;;;;;;20.95;94.30;93988.59;4951398;28;20225;-80
2022/08/22 01:07:54;;;;;;;10.20;8.68;;;;;;;20.93;94.32;93997.63;4951792;29;20206;-80
2022/08/22 01:10:51;;;;;;;11.35;9.15;;;;;;;20.93;94.46;93993.22;4951390;29;20683;-79
2022/08/22 01:13:36;;;;;;;11.32;10.13;;;;;;;20.78;94.13;93972.03;4951293;29;20187;-79
2022/08/22 01:16:23;;;;;;;10.23;9.23;;;;;;;20.54;94.31;93932.91;4951154;29;20280;-79
2022/08/22 01:19:00;;;;;;;11.00;9.68;;;;;;;20.90;94.40;93988.47;4951339;29;20282;-80
2022/08/22 01:22:00;;;;;;;13.57;10.48;;;;;;;20.96;94.32;93987.59;4951087;29;20669;-78
2022/08/22 01:25:19;;;;;;;9.38;8.48;;;;;;;20.95;94.37;93985.22;5053227;28;20658;-79
2022/08/22 01:28:18;;;;;;;10.63;9.57;;;;;;;20.93;94.67;93987.22;5071554;28;20202;-78
2022/08/22 01:31:15;;;;;;;11.15;8.93;;;;;;;20.75;94.38;93964.66;5071476;28;20205;-78
2022/08/22 01:34:26;;;;;;;11.75;9.20;;;;;;;20.93;94.13;93989.81;5071537;28;20217;-78
2022/08/22 01:37:33;;;;;;;10.43;9.35;;;;;;;20.92;94.18;94001.25;5071606;28;20186;-80
2022/08/22 01:40:38;;;;;;;10.25;9.25;;;;;;;20.92;94.12;94002.03;4989649;28;20208;-79
2022/08/22 01:43:16;;;;;;;11.50;9.68;;;;;;;20.90;94.50;94001.47;4931347;29;20666;-80
2022/08/22 01:46:08;;;;;;;14.52;10.07;;;;;;;20.89;94.38;94005.06;4932017;29;20219;-79
2022/08/22 01:48:41;;;;;;;11.80;10.48;;;;;;;20.90;93.88;94001.47;4931964;29;20561;-79
2022/08/22 01:51:20;;;;;;;10.65;9.40;;;;;;;20.87;94.04;94003.72;4931681;29;20203;-79
2022/08/22 01:53:56;;;;;;;16.08;9.45;;;;;;;20.85;94.31;93990.13;4931829;29;20289;-80
2022/08/22 01:56:25;;;;;;;11.60;10.32;;;;;;;20.85;94.38;93998.72;4930860;29;20262;-79
2022/08/22 01:58:59;;;;;;;11.05;9.95;;;;;;;20.85;94.05;93993.50;4930581;29;20667;-79
2022/08/22 02:01:40;;;;;;;11.75;10.55;;;;;;;20.79;94.04;94000.38;4931162;29;20686;-79
2022/08/22 02:04:14;;;;;;;13.00;11.23;;;;;;;20.79;94.30;93994.38;4930990;29;20214;-79
2022/08/22 02:06:51;;;;;;;15.20;11.65;;;;;;;20.73;93.97;93983.06;4931273;29;20195;-80
2022/08/22 02:09:32;;;;;;;13.30;11.25;;;;;;;20.73;94.01;93979.69;4931126;29;20641;-80
2022/08/22 02:12:12;;;;;;;14.38;12.00;;;;;;;20.80;93.86;93988.19;4931264;29;20186;-79
2022/08/22 02:14:46;;;;;;;12.43;11.20;;;;;;;20.73;93.75;93985.66;4931102;29;20237;-79
2022/08/22 02:17:20;;;;;;;12.88;11.38;;;;;;;20.68;93.45;93982.13;4989780;28;20253;-79
2022/08/22 02:19:55;;;;;;;13.32;11.77;;;;;;;20.71;93.75;93992.09;5039068;28;20194;-80
2022/08/22 02:22:34;;;;;;;13.15;10.95;;;;;;;20.69;93.98;93994.91;5070308;28;20228;-80
2022/08/22 02:25:08;;;;;;;15.27;12.30;;;;;;;20.68;93.97;93992.50;5069947;28;20666;-80
2022/08/22 02:27:47;;;;;;;13.03;11.60;;;;;;;20.68;94.19;93997.69;5070972;28;20269;-80
2022/08/22 02:30:17;;;;;;;16.15;12.73;;;;;;;20.59;94.02;93989.41;5070201;28;20576;-81
2022/08/22 02:32:55;;;;;;;13.63;12.23;;;;;;;20.65;94.02;93990.38;5070652;28;20210;-81
2022/08/22 02:35:39;;;;;;;14.20;12.63;;;;;;;20.47;94.16;93967.75;5070213;28;20269;-80
2022/08/22 02:38:24;;;;;;;13.83;12.33;;;;;;;20.61;93.99;93997.00;5069769;28;20636;-80
2022/08/22 02:41:02;;;;;;;13.07;11.55;;;;;;;20.58;93.75;93998.22;5070129;28;20190;-81
2022/08/22 02:43:38;;;;;;;13.95;12.45;;;;;;;20.44;94.08;93976.75;5070251;28;20280;-80
2022/08/22 02:46:16;;;;;;;13.53;12.00;;;;;;;20.53;94.04;93995.47;5070011;28;20202;-80
2022/08/22 02:48:48;;;;;;;11.77;10.57;;;;;;;20.45;93.67;93991.31;5069863;28;20194;-80
2022/08/22 02:51:26;;;;;;;14.55;12.07;;;;;;;20.50;93.71;93995.91;5070314;28;20234;-79
2022/08/22 02:54:00;;;;;;;16.40;12.18;;;;;;;20.28;93.69;93972.91;5070199;28;20185;-80
2022/08/22 02:56:33;;;;;;;14.43;11.60;;;;;;;20.47;93.88;94004.91;5069515;28;20198;-80
2022/08/22 02:59:21;;;;;;;15.87;11.90;;;;;;;20.44;94.17;94000.13;5069873;28;20654;-80
2022/08/22 03:01:49;;;;;;;13.02;11.68;;;;;;;20.39;93.87;93994.00;5069706;28;20222;-80
2022/08/22 03:04:46;;;;;;;13.90;12.00;;;;;;;20.43;93.73;93998.56;5069781;28;20214;-80
2022/08/22 03:07:25;;;;;;;14.00;11.50;;;;;;;20.35;94.22;94001.44;5069976;28;20197;-81
2022/08/22 03:10:09;;;;;;;12.00;10.52;;;;;;;20.35;94.05;94006.63;5069460;28;20193;-80
2022/08/22 03:12:46;;;;;;;16.70;12.05;;;;;;;20.30;94.22;94001.28;5070079;28;20270;-81
2022/08/22 03:15:19;;;;;;;13.52;11.68;;;;;;;20.32;93.93;94009.63;5069524;28;20205;-79
2022/08/22 03:17:52;;;;;;;17.08;11.43;;;;;;;20.30;94.17;94004.66;5069642;28;20199;-80
2022/08/22 03:20:38;;;;;;;15.63;12.93;;;;;;;20.23;94.07;94000.53;5069790;28;20240;-81
2022/08/22 03:23:13;;;;;;;14.27;11.48;;;;;;;20.28;93.63;94013.66;5069803;28;20676;-81
2022/08/22 03:25:51;;;;;;;14.05;11.25;;;;;;;20.24;94.06;94015.88;5069940;28;20204;-82
2022/08/22 03:28:23;;;;;;;17.33;12.20;;;;;;;20.23;93.94;94010.91;5069285;28;20194;-80
2022/08/22 03:30:58;;;;;;;15.00;12.40;;;;;;;20.00;94.05;93975.19;5069718;28;20206;-79
2022/08/22 03:33:27;;;;;;;15.93;11.88;;;;;;;20.21;93.94;94016.34;5069696;28;20217;-80
2022/08/22 03:36:06;;;;;;;13.37;11.73;;;;;;;20.19;94.32;94015.75;5070434;28;20286;-81
2022/08/22 03:39:08;;;;;;;15.47;12.43;;;;;;;20.13;94.40;94006.22;5069505;28;20197;-81
2022/08/22 03:42:13;;;;;;;13.53;11.73;;;;;;;20.19;94.60;94012.34;5046794;28;20191;-79
2022/08/22 03:45:17;;;;;;;12.93;11.43;;;;;;;20.19;94.26;94002.75;4949400;28;20640;-81
2022/08/22 03:48:23;;;;;;;14.83;12.83;;;;;;;20.15;94.28;94001.59;4949878;28;20207;-82
2022/08/22 03:51:13;;;;;;;15.40;11.87;;;;;;;20.13;94.12;94008.81;4892298;29;20215;-80
2022/08/22 03:54:17;;;;;;;16.73;11.30;;;;;;;20.15;94.09;94008.59;4892000;29;20211;-79
2022/08/22 03:57:31;;;;;;;15.67;12.00;;;;;;;20.13;94.30;94006.22;4891883;29;20215;-80
2022/08/22 04:00:11;;;;;;;14.90;12.03;;;;;;;20.10;94.41;94006.63;4891986;29;20230;-80
2022/08/22 04:03:14;;;;;;;13.60;12.07;;;;;;;20.09;94.57;94004.28;4891788;29;20672;-81
2022/08/22 04:06:07;;;;;;;19.83;12.50;;;;;;;20.10;94.71;94004.03;4891734;29;20232;-79
2022/08/22 04:09:03;;;;;;;14.47;12.00;;;;;;;20.10;95.16;94011.03;4891723;29;20196;-81
2022/08/22 04:11:49;;;;;;;13.30;11.73;;;;;;;20.12;94.75;94011.59;4891912;29;20205;-81
2022/08/22 04:14:34;;;;;;;17.43;12.40;;;;;;;20.17;94.57;94004.00;4891690;29;20197;-79
2022/08/22 04:17:31;;;;;;;13.77;11.93;;;;;;;20.18;94.81;94011.56;4895216;29;20640;-80
2022/08/22 04:20:23;;;;;;;15.60;12.00;;;;;;;20.18;94.43;94002.97;4928910;28;20278;-82
2022/08/22 04:23:30;;;;;;;15.60;12.67;;;;;;;20.25;94.75;94006.28;4950426;29;20226;-80
2022/08/22 04:26:01;;;;;;;16.83;12.93;;;;;;;20.26;94.49;94008.69;4946469;29;20198;-80
2022/08/22 04:28:35;;;;;;;14.03;11.40;;;;;;;20.30;94.23;94015.06;5003481;28;20200;-80
2022/08/22 04:31:08;;;;;;;12.52;11.23;;;;;;;20.27;94.13;94006.88;5010765;28;20180;-82
2022/08/22 04:33:43;;;;;;;16.15;12.18;;;;;;;20.39;93.86;94014.78;5010711;28;20588;-80
2022/08/22 04:36:19;;;;;;;13.65;12.25;;;;;;;20.41;94.33;94021.31;5010940;28;20184;-81
2022/08/22 04:38:51;;;;;;;13.37;11.37;;;;;;;20.39;94.17;94009.59;5011002;28;20184;-81
2022/08/22 04:41:24;;;;;;;16.15;12.63;;;;;;;20.52;94.24;94014.69;5010755;28;20219;-80
2022/08/22 04:43:57;;;;;;;17.08;12.50;;;;;;;20.47;94.05;94004.91;5010749;28;20308;-81
2022/08/22 04:46:35;;;;;;;14.13;11.98;;;;;;;20.57;94.13;94019.22;5010866;28;20199;-81
2022/08/22 04:49:08;;;;;;;15.80;11.73;;;;;;;20.63;93.71;94016.53;5010638;28;20195;-79
2022/08/22 04:51:40;;;;;;;13.38;11.30;;;;;;;20.69;93.83;94020.88;5010523;28;20184;-81
2022/08/22 04:54:37;;;;;;;12.95;11.60;;;;;;;20.80;93.55;94019.38;5010187;28;20207;-80
2022/08/22 04:57:16;;;;;;;12.63;11.10;;;;;;;20.89;93.36;94025.06;5010496;28;20195;-81
2022/08/22 04:59:44;;;;;;;12.60;11.23;;;;;;;20.97;92.27;94022.16;5033427;28;20573;-80
2022/08/22 05:02:19;;;;;;;12.88;11.25;;;;;;;21.03;92.26;94021.31;5072081;28;20210;-79
2022/08/22 05:04:54;;;;;;;13.02;11.30;;;;;;;21.12;92.12;94022.59;5072042;28;20322;-81
2022/08/22 05:07:35;;;;;;;14.53;11.27;;;;;;;21.22;90.81;94032.47;5071844;28;20661;-83
2022/08/22 05:10:08;;;;;;;14.45;11.10;;;;;;;21.36;89.06;94033.13;5072410;28;20750;-81
2022/08/22 05:12:39;;;;;;;14.57;11.63;;;;;;;21.18;89.64;94008.72;5071900;28;20190;-82
2022/08/22 05:15:13;;;;;;;12.23;10.90;;;;;;;21.32;89.82;94024.16;5072016;28;20623;-82
2022/08/22 05:17:42;;;;;;;12.45;10.45;;;;;;;21.34;89.44;94027.38;5071730;28;20573;-82
2022/08/22 05:20:17;;;;;;;12.43;10.68;;;;;;;21.25;89.19;94022.44;5072333;28;20217;-82
2022/08/22 05:22:48;;;;;;;16.67;11.18;;;;;;;21.39;89.71;94040.50;5071843;28;20217;-83
2022/08/22 05:25:21;;;;;;;13.50;10.98;;;;;;;21.46;89.24;94046.38;5072405;28;20195;-81
2022/08/22 05:27:52;;;;;;;12.20;10.90;;;;;;;21.49;89.61;94051.94;5071832;28;20213;-82
2022/08/22 05:30:24;;;;;;;15.38;10.93;;;;;;;21.36;88.89;94030.53;5071664;28;20665;-81
2022/08/22 05:32:54;;;;;;;17.02;12.48;;;;;;;21.46;89.01;94057.63;5072402;28;20613;-81
2022/08/22 05:35:36;;;;;;;12.55;11.07;;;;;;;21.14;89.05;93997.16;5072686;28;20186;-80
2022/08/22 05:38:05;;;;;;;15.68;11.35;;;;;;;21.53;88.98;94057.50;5071621;28;20190;-80
2022/08/22 05:40:34;;;;;;;11.10;9.65;;;;;;;21.54;88.67;94057.31;5071897;28;20194;-80
2022/08/22 05:43:02;;;;;;;13.18;11.25;;;;;;;21.54;89.12;94059.09;5072695;28;20301;-80
2022/08/22 05:45:30;;;;;;;11.85;10.55;;;;;;;21.52;89.70;94066.34;5071688;28;20197;-80
2022/08/22 05:48:03;;;;;;;12.43;10.75;;;;;;;21.56;89.09;94057.06;5071703;28;20209;-82
2022/08/22 05:50:37;;;;;;;12.43;10.65;;;;;;;21.56;89.38;94067.47;5070887;28;20210;-80
2022/08/22 05:53:09;;;;;;;14.75;10.90;;;;;;;21.54;89.68;94077.31;5071167;28;20212;-82
2022/08/22 05:55:45;;;;;;;13.05;11.57;;;;;;;21.61;89.46;94078.03;5070823;28;20190;-82
2022/08/22 05:58:36;;;;;;;14.15;11.75;;;;;;;21.61;89.81;94079.84;5071237;28;20273;-82
2022/08/22 06:01:21;;;;;;;12.52;11.15;;;;;;;21.70;89.99;94086.31;5071388;28;20194;-81
2022/08/22 06:03:59;;;;;;;14.80;11.45;;;;;;;21.69;88.81;94067.31;5071516;28;20589;-80
2022/08/22 06:06:30;;;;;;;13.50;12.00;;;;;;;21.82;88.04;94076.75;5071165;28;20576;-81
2022/08/22 06:09:02;;;;;;;14.27;12.65;;;;;;;21.83;88.04;94061.91;5071023;28;20626;-81
2022/08/22 06:11:35;;;;;;;14.27;11.50;;;;;;;22.13;88.14;94083.50;5070893;28;20197;-79
2022/08/22 06:14:14;;;;;;;12.20;10.30;;;;;;;22.30;86.90;94083.66;5070824;28;20190;-80
2022/08/22 06:16:48;;;;;;;11.93;10.32;;;;;;;22.41;86.43;94080.28;5071224;28;20197;-79
2022/08/22 06:19:16;;;;;;;12.63;11.00;;;;;;;22.52;85.96;94083.91;5070350;28;20179;-80
2022/08/22 06:21:48;;;;;;;11.80;10.43;;;;;;;22.61;85.37;94084.34;5070791;28;20194;-80
2022/08/22 06:24:21;;;;;;;11.35;10.18;;;;;;;22.69;84.27;94089.22;5070282;28;20236;-82
2022/08/22 06:26:51;;;;;;;13.07;10.57;;;;;;;22.77;84.08;94099.31;5070693;28;20275;-81
2022/08/22 06:29:30;;;;;;;12.63;10.95;;;;;;;22.65;83.26;94072.44;5070457;28;20222;-80
2022/08/22 06:31:59;;;;;;;11.50;9.80;;;;;;;22.78;83.43;94093.84;5070699;28;20281;-81
2022/08/22 06:34:32;;;;;;;12.15;10.85;;;;;;;22.62;82.13;94055.44;5070117;28;20179;-81
2022/08/22 06:37:04;;;;;;;11.85;10.50;;;;;;;22.93;82.62;94095.25;5070317;28;20214;-81
2022/08/22 06:39:34;;;;;;;10.90;9.80;;;;;;;22.98;81.83;94092.75;5070459;28;20186;-80
2022/08/22 06:42:04;;;;;;;12.50;9.75;;;;;;;23.16;81.63;94086.59;5070672;28;20197;-80
2022/08/22 06:44:35;;;;;;;17.27;10.25;;;;;;;23.21;80.86;94065.81;5069228;28;20222;-80
2022/08/22 06:47:07;;;;;;;11.50;9.50;;;;;;;23.48;79.83;94094.78;5070207;28;20205;-80
2022/08/22 06:49:36;;;;;;;10.07;9.07;;;;;;;23.34;78.16;94088.25;5069793;28;20760;-80
2022/08/22 06:52:08;;;;;;;10.88;9.77;;;;;;;23.43;78.58;94090.25;5070408;28;20205;-79
2022/08/22 06:54:41;;;;;;;11.15;9.80;;;;;;;23.71;77.60;94096.56;5069738;28;20190;-80
2022/08/22 06:57:26;;;;;;;9.98;8.98;;;;;;;23.79;77.91;94088.31;5070079;28;20201;-79
2022/08/22 06:59:55;;;;;;;10.18;9.18;;;;;;;23.84;77.41;94098.09;5070280;28;20182;-80
2022/08/22 07:02:29;;;;;;;10.63;9.52;;;;;;;24.00;77.70;94090.28;5070085;28;20201;-80
2022/08/22 07:04:56;;;;;;;11.95;9.23;;;;;;;24.11;76.18;94093.84;5069720;28;20226;-80
2022/08/22 07:07:27;;;;;;;11.77;9.90;;;;;;;24.28;75.60;94099.88;5070076;28;20179;-80
2022/08/22 07:09:56;;;;;;;10.55;8.45;;;;;;;24.14;74.80;94097.84;5070011;28;20194;-79
2022/08/22 07:12:27;;;;;;;10.65;8.85;;;;;;;24.03;75.18;94094.25;5069847;28;20186;-80
2022/08/22 07:15:10;;;;;;;9.85;8.52;;;;;;;24.23;74.22;94099.03;5069650;28;20179;-81
2022/08/22 07:17:48;;;;;;;12.05;7.68;;;;;;;24.31;73.99;94100.44;5069565;28;20190;-81
2022/08/22 07:20:24;;;;;;;9.85;7.72;;;;;;;24.39;72.96;94105.28;5069734;28;20190;-80
2022/08/22 07:22:56;;;;;;;12.00;8.52;;;;;;;24.14;71.87;94095.22;5069280;28;20186;-80
2022/08/22 07:25:24;;;;;;;8.70;7.82;;;;;;;23.92;73.22;94108.13;5069121;28;20689;-80
2022/08/22 07:28:13;;;;;;;11.27;8.52;;;;;;;24.13;73.25;94106.69;5069601;28;20190;-81
2022/08/22 07:30:54;;;;;;;9.30;7.68;;;;;;;24.09;74.07;94108.16;5069643;28;20256;-80
2022/08/22 07:33:43;;;;;;;11.98;9.07;;;;;;;24.07;73.14;94103.19;5069334;28;20289;-79
2022/08/22 07:36:35;;;;;;;12.25;9.07;;;;;;;24.31;74.01;94100.44;5066893;28;20276;-80
2022/08/22 07:39:23;;;;;;;9.68;8.18;;;;;;;24.51;73.44;94101.56;5027290;28;20615;-79
2022/08/22 07:42:01;;;;;;;12.13;9.38;;;;;;;24.64;72.17;94100.47;5027239;28;20195;-81
2022/08/22 07:44:37;;;;;;;13.68;8.40;;;;;;;24.73;70.91;94100.84;5026720;28;20358;-81
2022/08/22 07:47:08;;;;;;;9.55;8.55;;;;;;;24.72;70.99;94094.03;5027166;28;20283;-80
2022/08/22 07:49:38;;;;;;;9.70;8.05;;;;;;;24.94;71.67;94091.47;5026611;28;20563;-81
2022/08/22 07:52:08;;;;;;;9.38;8.45;;;;;;;25.02;70.15;94085.81;5027173;28;20206;-80
2022/08/22 07:54:42;;;;;;;12.73;7.90;;;;;;;24.99;69.76;94084.47;5026490;28;20597;-79
2022/08/22 07:57:13;;;;;;;11.18;9.02;;;;;;;25.35;69.51;94094.63;5026950;28;20205;-81
2022/08/22 07:59:46;;;;;;;10.95;9.43;;;;;;;25.51;67.53;94093.75;5026587;28;20686;-81
2022/08/22 08:02:16;;;;;;;11.38;9.18;;;;;;;25.67;67.05;94097.34;5026738;28;20249;-80
2022/08/22 08:04:43;;;;;;;10.10;8.75;;;;;;;25.63;66.46;94091.00;5026034;28;20683;-81
2022/08/22 08:07:15;;;;;;;14.05;8.18;;;;;;;25.81;66.68;94095.94;5026712;28;20195;-82
2022/08/22 08:09:48;;;;;;;12.23;8.65;;;;;;;25.90;67.70;94094.47;5026243;28;20206;-79
2022/08/22 08:12:16;;;;;;;9.30;8.25;;;;;;;25.92;65.96;94097.63;5026720;28;20194;-81
2022/08/22 08:14:46;;;;;;;10.85;8.57;;;;;;;25.86;66.10;94097.81;5026352;28;20196;-82
2022/08/22 08:17:22;;;;;;;10.50;7.15;;;;;;;26.06;67.19;94092.00;5069038;28;20191;-81
2022/08/22 08:19:50;;;;;;;14.05;8.35;;;;;;;26.23;67.44;94082.97;5068653;28;20194;-79
2022/08/22 08:22:21;;;;;;;11.38;9.15;;;;;;;26.43;66.73;94094.69;5068660;28;20653;-80
2022/08/22 08:24:51;;;;;;;9.85;8.48;;;;;;;26.31;65.16;94091.44;5068527;28;20229;-80
2022/08/22 08:30:17;;;;;;;10.45;8.52;;;;;;;26.24;65.48;94095.03;5069025;28;20620;-79
2022/08/22 08:32:49;;;;;;;9.52;8.20;;;;;;;26.30;65.49;94093.25;5068230;28;20209;-80
2022/08/22 08:35:23;;;;;;;10.02;8.13;;;;;;;26.28;64.52;94077.75;5068859;28;20205;-80
2022/08/22 08:37:56;;;;;;;11.73;8.60;;;;;;;26.34;64.29;94093.53;5068297;28;20179;-80
2022/08/22 08:40:52;;;;;;;10.32;9.23;;;;;;;25.88;65.01;94064.31;5068667;28;20206;-80
2022/08/22 08:43:28;;;;;;;11.48;8.57;;;;;;;26.05;65.61;94085.19;5068717;28;20213;-80
2022/08/22 08:46:48;;;;;;;11.10;8.13;;;;;;;26.15;64.08;94090.50;5069758;28;20251;-81
2022/08/22 08:49:30;;;;;;;10.32;7.90;;;;;;;26.10;64.71;94085.22;5069488;28;20631;-78
2022/08/22 08:52:25;;;;;;;11.70;8.25;;;;;;;26.14;64.81;94087.09;5068633;28;20193;-80
2022/08/22 08:55:08;;;;;;;8.60;7.28;;;;;;;25.97;64.50;94049.72;5068208;28;20272;-82
2022/08/22 08:57:52;;;;;;;8.63;7.60;;;;;;;26.26;64.39;94082.47;5068410;28;20591;-81
2022/08/22 09:00:25;;;;;;;10.00;8.00;;;;;;;26.40;65.32;94080.22;5068336;28;20197;-79
2022/08/22 09:03:03;;;;;;;12.20;8.48;;;;;;;26.46;64.80;94076.63;5068573;28;20183;-80
2022/08/22 09:05:50;;;;;;;9.23;8.32;;;;;;;26.57;64.57;94087.19;5068197;28;20229;-80
2022/08/22 09:09:03;;;;;;;10.48;8.30;;;;;;;26.51;63.73;94081.91;5071331;28;20194;-80
2022/08/22 09:11:57;;;;;;;11.50;8.68;;;;;;;26.40;64.04;94071.56;5071643;28;20608;-81
2022/08/22 09:14:44;;;;;;;9.50;8.20;;;;;;;26.56;64.10;94075.91;5071812;28;20190;-80
2022/08/22 09:17:41;;;;;;;11.85;8.52;;;;;;;26.56;63.85;94083.78;5071924;28;20197;-80
2022/08/22 09:20:36;;;;;;;11.38;8.77;;;;;;;26.46;62.95;94058.25;5071558;28;20594;-80
2022/08/22 09:23:28;;;;;;;12.38;9.00;;;;;;;26.48;64.37;94079.00;5071425;28;20201;-79
2022/08/22 09:26:03;;;;;;;13.75;8.18;;;;;;;26.51;64.81;94078.47;5071517;28;20296;-79
2022/08/22 09:28:35;;;;;;;12.18;8.50;;;;;;;26.54;63.97;94079.81;5071386;28;20193;-79
2022/08/22 09:31:23;;;;;;;12.27;8.65;;;;;;;26.53;64.83;94081.66;5071848;28;20182;-79
2022/08/22 09:33:54;;;;;;;12.82;8.25;;;;;;;26.54;65.61;94075.38;5072338;28;20197;-80
2022/08/22 09:36:30;;;;;;;10.18;7.88;;;;;;;26.49;65.36;94051.72;5071166;28;20255;-79
2022/08/22 09:39:10;;;;;;;11.18;8.18;;;;;;;26.68;64.52;94076.50;5071485;28;20610;-81
2022/08/22 09:41:42;;;;;;;10.73;7.50;;;;;;;26.83;64.21;94072.41;5071453;28;20186;-81
2022/08/22 09:44:17;;;;;;;8.85;7.95;;;;;;;26.92;64.53;94076.13;5071554;28;20225;-81
2022/08/22 09:46:58;;;;;;;12.95;8.77;;;;;;;26.95;62.51;94071.16;5071114;28;20209;-80
2022/08/22 09:49:39;;;;;;;9.70;7.40;;;;;;;26.73;63.65;94018.84;5071711;28;20187;-79
2022/08/22 09:52:11;;;;;;;10.20;7.70;;;;;;;27.20;62.35;94067.09;5071355;28;20197;-80
2022/08/22 09:54:46;;;;;;;11.55;8.57;;;;;;;27.24;62.32;94057.66;5071377;28;20195;-81
2022/08/22 09:57:20;;;;;;;11.95;9.02;;;;;;;26.96;62.36;94061.44;5071336;28;20285;-82
2022/08/22 09:59:58;;;;;;;12.70;8.88;;;;;;;26.85;62.96;94057.97;5071156;28;20197;-81
2022/08/22 10:02:35;;;;;;;10.57;8.40;;;;;;;26.98;63.68;94057.50;5071346;28;20193;-81
2022/08/22 10:05:17;;;;;;;10.32;9.30;;;;;;;27.05;63.62;94046.00;5070612;28;20234;-79
2022/08/22 10:08:01;;;;;;;10.52;8.43;;;;;;;27.16;64.07;94051.09;5070870;28;20573;-81
2022/08/22 10:10:56;;;;;;;9.48;7.95;;;;;;;27.22;61.88;94041.38;5070675;28;20194;-80
2022/08/22 10:13:36;;;;;;;11.80;8.50;;;;;;;26.94;62.08;94045.16;5070480;28;20208;-80
2022/08/22 10:16:20;;;;;;;12.50;9.75;;;;;;;26.83;62.56;94043.53;5070651;28;20277;-80
2022/08/22 10:18:58;;;;;;;12.40;8.57;;;;;;;26.91;62.14;94040.44;5069443;28;20201;-80
2022/08/22 10:21:34;;;;;;;12.65;8.80;;;;;;;26.91;62.01;94040.44;5070849;28;20198;-80
2022/08/22 10:24:11;;;;;;;11.27;8.25;;;;;;;26.90;61.57;94038.84;5070624;28;20206;-83
2022/08/22 10:26:46;;;;;;;13.38;8.77;;;;;;;26.83;62.79;94033.03;5070352;28;20197;-81
2022/08/22 10:29:44;;;;;;;9.85;7.88;;;;;;;26.78;62.87;94033.81;5070629;28;20193;-80
2022/08/22 10:32:26;;;;;;;13.73;9.35;;;;;;;26.89;62.28;94018.91;5070434;28;20203;-81
2022/08/22 10:34:59;;;;;;;9.20;8.25;;;;;;;26.87;62.05;94021.78;5070430;28;20194;-82
2022/08/22 10:37:32;;;;;;;12.88;7.65;;;;;;;26.90;61.73;94018.66;5070533;28;20213;-81
2022/08/22 10:40:05;;;;;;;10.15;8.27;;;;;;;27.04;61.68;94016.34;5070161;28;20200;-82
2022/08/22 10:42:37;;;;;;;8.73;7.25;;;;;;;27.11;62.43;94010.88;5070317;28;20304;-81
2022/08/22 10:45:20;;;;;;;9.38;8.13;;;;;;;27.15;61.32;94004.84;5069930;28;20226;-82
2022/08/22 10:48:22;;;;;;;9.52;8.30;;;;;;;27.26;60.95;94006.47;5069781;28;20632;-81
2022/08/22 10:50:55;;;;;;;10.15;8.55;;;;;;;27.25;61.56;94004.13;5049757;28;20195;-80
2022/08/22 10:53:32;;;;;;;15.77;8.15;;;;;;;27.38;61.83;94002.84;5047647;28;20270;-81
2022/08/22 10:56:08;;;;;;;12.63;8.05;;;;;;;27.30;61.05;93998.88;5048966;28;20199;-81
2022/08/22 10:58:41;;;;;;;13.40;8.80;;;;;;;27.29;61.03;94007.00;5047318;28;20179;-80
2022/08/22 11:01:13;;;;;;;10.32;8.90;;;;;;;27.37;61.48;93996.00;5047632;28;20202;-81
2022/08/22 11:03:44;;;;;;;9.18;8.27;;;;;;;27.52;61.76;93998.66;5047642;28;20244;-81
2022/08/22 11:06:19;;;;;;;12.60;9.20;;;;;;;27.64;61.39;94001.06;5047774;28;20230;-81
2022/08/22 11:09:12;;;;;;;9.30;8.32;;;;;;;27.75;61.30;94010.53;5047245;28;20286;-80
2022/08/22 11:11:46;;;;;;;9.80;8.05;;;;;;;27.85;60.60;94010.56;5048398;28;20278;-80
2022/08/22 11:14:50;;;;;;;13.00;8.63;;;;;;;27.87;58.56;93991.91;5047601;28;20195;-81
2022/08/22 11:17:49;;;;;;;12.45;8.45;;;;;;;27.95;58.27;94002.69;4968437;28;20689;-81
2022/08/22 11:20:23;;;;;;;10.48;8.25;;;;;;;28.00;58.18;94004.53;4967589;28;20583;-79
2022/08/22 11:23:11;;;;;;;11.00;7.65;;;;;;;27.87;57.22;93979.53;4968189;28;20257;-80
2022/08/22 11:25:52;;;;;;;8.70;7.80;;;;;;;27.97;57.54;93984.78;4968248;28;20230;-80
2022/08/22 11:28:56;;;;;;;10.02;7.55;;;;;;;28.04;57.89;93995.06;4996234;28;20192;-80
2022/08/22 11:31:33;;;;;;;8.90;8.00;;;;;;;28.05;58.60;93998.47;5007476;28;20242;-81
2022/08/22 11:34:09;;;;;;;9.65;8.10;;;;;;;28.10;56.96;94001.09;5007302;28;20784;-81
2022/08/22 11:36:42;;;;;;;8.18;7.47;;;;;;;28.07;57.18;94001.66;5007436;28;20195;-81
2022/08/22 11:39:22;;;;;;;8.50;7.57;;;;;;;27.97;57.08;93986.63;5007129;28;20188;-81
2022/08/22 11:41:57;;;;;;;11.18;8.65;;;;;;;28.02;57.76;94002.41;5007189;28;20203;-81
2022/08/22 11:44:30;;;;;;;11.30;7.85;;;;;;;27.99;57.73;93992.44;5007366;28;20208;-81
2022/08/22 11:47:00;;;;;;;8.63;7.70;;;;;;;27.94;58.27;93992.44;5007103;28;20204;-80
2022/08/22 11:49:43;;;;;;;8.95;7.60;;;;;;;27.90;58.68;93988.75;5007533;28;20282;-80
2022/08/22 11:52:18;;;;;;;9.13;7.80;;;;;;;27.80;58.65;93976.38;5007037;28;20188;-81
2022/08/22 11:55:22;;;;;;;9.32;7.78;;;;;;;27.69;58.69;93967.69;5050063;28;20586;-80
2022/08/22 11:57:52;;;;;;;9.38;8.32;;;;;;;27.56;59.21;93956.91;5069227;28;20193;-79
2022/08/22 12:00:32;;;;;;;10.30;8.07;;;;;;;27.54;61.66;93965.03;5068827;28;20187;-80
2022/08/22 12:03:19;;;;;;;13.40;8.73;;;;;;;27.61;64.25;93983.19;5069270;28;20234;-80
2022/08/22 12:05:51;;;;;;;11.07;8.65;;;;;;;27.18;66.45;93925.59;5068635;28;20249;-81
2022/08/22 12:08:48;;;;;;;14.45;9.40;;;;;;;27.42;68.27;93988.16;5069027;28;20194;-81
2022/08/22 12:11:24;;;;;;;12.52;9.63;;;;;;;27.16;70.52;93984.63;5069203;28;20255;-79
2022/08/22 12:13:55;;;;;;;11.43;10.10;;;;;;;27.10;70.85;93983.84;5068378;28;20189;-79
2022/08/22 12:16:30;;;;;;;11.52;9.68;;;;;;;27.08;71.43;93969.38;5069351;28;20209;-81
2022/08/22 12:19:05;;;;;;;14.18;9.75;;;;;;;26.85;73.28;93941.72;5068626;28;20181;-82
2022/08/22 12:22:01;;;;;;;11.35;9.50;;;;;;;26.95;72.83;93962.78;5069259;28;20194;-80
2022/08/22 12:24:47;;;;;;;13.82;10.15;;;;;;;27.00;74.03;93962.78;5066039;28;20628;-81